Time;durP1;ratioP1;P1;durP2;ratioP2;P2;SDS_P1;SDS_P2;PMS_P1;PMS_P2;Temp;Humidity;BMP_temperature;BMP_pressure;BME280_temperature;BME280_humidity;BME280_pressure;Samples;Min_cycle;Max_cycle;Signal;HPM_P1;HPM_P2
2023/10/24 00:02:07;;;;;;;0.50;0.50;;;;;;;;;;4993584;28;20169;-84
2023/10/24 00:04:33;;;;;;;0.40;0.40;;;;;;;;;;4993491;28;20634;-84
2023/10/24 00:06:59;;;;;;;0.50;0.50;;;;;;;;;;4995789;28;20250;-84
2023/10/24 00:09:25;;;;;;;0.43;0.43;;;;;;;;;;4994264;28;20690;-84
2023/10/24 00:11:52;;;;;;;0.70;0.70;;;;;;;;;;4994841;28;20169;-84
2023/10/24 00:14:17;;;;;;;0.50;0.50;;;;;;;;;;4993212;28;20184;-84
2023/10/24 00:16:43;;;;;;;0.50;0.50;;;;;;;;;;4993881;28;20209;-85
2023/10/24 00:19:09;;;;;;;0.40;0.40;;;;;;;;;;4993150;28;20184;-85
2023/10/24 00:21:35;;;;;;;0.60;0.60;;;;;;;;;;4993356;28;20220;-85
2023/10/24 00:24:01;;;;;;;0.70;0.70;;;;;;;;;;4993759;28;20181;-84
2023/10/24 00:26:27;;;;;;;0.60;0.60;;;;;;;;;;4994413;28;20201;-85
2023/10/24 00:28:53;;;;;;;0.60;0.60;;;;;;;;;;4993895;28;20776;-85
2023/10/24 00:31:19;;;;;;;0.50;0.50;;;;;;;;;;4994659;28;20193;-85
2023/10/24 00:33:45;;;;;;;0.60;0.60;;;;;;;;;;5002210;28;20248;-85
2023/10/24 00:36:11;;;;;;;0.60;0.60;;;;;;;;;;5003638;28;20217;-85
2023/10/24 00:38:37;;;;;;;0.50;0.50;;;;;;;;;;5001201;28;20232;-84
2023/10/24 00:41:03;;;;;;;0.60;0.60;;;;;;;;;;4993547;28;20196;-84
2023/10/24 00:43:29;;;;;;;0.50;0.50;;;;;;;;;;4992242;28;20189;-84
2023/10/24 00:45:55;;;;;;;0.60;0.60;;;;;;;;;;4993543;28;20193;-85
2023/10/24 00:48:21;;;;;;;0.50;0.50;;;;;;;;;;4993879;28;20181;-85
2023/10/24 00:50:47;;;;;;;0.50;0.50;;;;;;;;;;5001331;28;20185;-85
2023/10/24 00:53:13;;;;;;;0.50;0.50;;;;;;;;;;5016312;28;20169;-84
2023/10/24 00:55:39;;;;;;;0.80;0.80;;;;;;;;;;5006683;28;20201;-85
2023/10/24 00:58:06;;;;;;;0.60;0.60;;;;;;;;;;4992865;28;20213;-84
2023/10/24 01:00:33;;;;;;;0.60;0.60;;;;;;;;;;4992824;28;20252;-85
2023/10/24 01:03:00;;;;;;;0.50;0.50;;;;;;;;;;4993027;28;20185;-85
2023/10/24 01:05:27;;;;;;;0.40;0.40;;;;;;;;;;4992263;28;20209;-84
2023/10/24 01:07:53;;;;;;;0.50;0.50;;;;;;;;;;4993057;28;20177;-84
2023/10/24 01:10:19;;;;;;;0.40;0.40;;;;;;;;;;4993304;28;20360;-85
2023/10/24 01:12:45;;;;;;;0.53;0.53;;;;;;;;;;4995525;28;20181;-85
2023/10/24 01:15:11;;;;;;;0.50;0.50;;;;;;;;;;4996253;28;20228;-85
2023/10/24 01:17:47;;;;;;;0.50;0.50;;;;;;;;;;4996488;28;20325;-84
2023/10/24 01:20:13;;;;;;;0.43;0.43;;;;;;;;;;4996667;28;20259;-84
2023/10/24 01:22:39;;;;;;;0.60;0.60;;;;;;;;;;4995413;28;20173;-84
2023/10/24 01:25:07;;;;;;;0.60;0.60;;;;;;;;;;4994989;28;20204;-84
2023/10/24 01:27:33;;;;;;;0.60;0.60;;;;;;;;;;4996594;28;20185;-85
2023/10/24 01:29:59;;;;;;;0.57;0.57;;;;;;;;;;4995208;28;20185;-84
2023/10/24 01:32:31;;;;;;;0.50;0.50;;;;;;;;;;4996978;28;20311;-85
2023/10/24 01:34:57;;;;;;;0.50;0.50;;;;;;;;;;4996198;28;20197;-86
2023/10/24 01:37:22;;;;;;;0.70;0.70;;;;;;;;;;4997231;28;20309;-85
2023/10/24 01:39:48;;;;;;;0.53;0.53;;;;;;;;;;4995791;28;20635;-85
2023/10/24 01:42:14;;;;;;;0.60;0.60;;;;;;;;;;4996357;28;20180;-85
2023/10/24 01:44:40;;;;;;;0.57;0.57;;;;;;;;;;4995698;28;20236;-85
2023/10/24 01:47:06;;;;;;;0.57;0.57;;;;;;;;;;4995915;28;20180;-84
2023/10/24 01:49:34;;;;;;;0.60;0.60;;;;;;;;;;4997389;28;20260;-85
2023/10/24 01:52:00;;;;;;;0.60;0.60;;;;;;;;;;4996870;28;20197;-84
2023/10/24 01:54:26;;;;;;;0.50;0.50;;;;;;;;;;4997133;28;20173;-85
2023/10/24 01:56:52;;;;;;;0.60;0.60;;;;;;;;;;4997810;28;20197;-84
2023/10/24 01:59:18;;;;;;;0.57;0.57;;;;;;;;;;4998619;28;20188;-84
2023/10/24 02:01:43;;;;;;;0.50;0.50;;;;;;;;;;5001824;28;20252;-85
2023/10/24 02:04:09;;;;;;;0.80;0.80;;;;;;;;;;5003102;28;20184;-85
2023/10/24 02:06:35;;;;;;;0.50;0.50;;;;;;;;;;5003752;28;20264;-85
2023/10/24 02:09:03;;;;;;;0.50;0.50;;;;;;;;;;5014384;28;20212;-84
2023/10/24 02:11:29;;;;;;;0.60;0.60;;;;;;;;;;5015881;28;20188;-84
2023/10/24 02:13:55;;;;;;;0.60;0.60;;;;;;;;;;5016281;28;20185;-83
2023/10/24 02:16:21;;;;;;;0.50;0.50;;;;;;;;;;5015099;28;20194;-83
2023/10/24 02:18:47;;;;;;;0.60;0.60;;;;;;;;;;5015609;28;20204;-83
2023/10/24 02:21:14;;;;;;;0.50;0.50;;;;;;;;;;5013111;28;20177;-83
2023/10/24 02:23:40;;;;;;;0.60;0.60;;;;;;;;;;5014596;28;20173;-84
2023/10/24 02:26:06;;;;;;;0.70;0.70;;;;;;;;;;5014553;28;20208;-83
2023/10/24 02:28:32;;;;;;;0.60;0.60;;;;;;;;;;5014750;28;20177;-83
2023/10/24 02:31:02;;;;;;;0.73;0.73;;;;;;;;;;5006155;28;20247;-84
2023/10/24 02:33:28;;;;;;;0.60;0.60;;;;;;;;;;5005808;28;20173;-83
2023/10/24 02:35:54;;;;;;;0.50;0.50;;;;;;;;;;5003858;28;20205;-83
2023/10/24 02:38:20;;;;;;;0.60;0.60;;;;;;;;;;5001955;28;20647;-84
2023/10/24 02:40:53;;;;;;;0.50;0.50;;;;;;;;;;5000657;28;20185;-83
2023/10/24 02:43:19;;;;;;;0.67;0.67;;;;;;;;;;4994504;28;20181;-83
2023/10/24 02:45:46;;;;;;;0.60;0.60;;;;;;;;;;4993711;28;20199;-82
2023/10/24 02:48:12;;;;;;;0.60;0.60;;;;;;;;;;4994815;28;20181;-84
2023/10/24 02:50:38;;;;;;;0.70;0.70;;;;;;;;;;4994276;28;20196;-84
2023/10/24 02:53:07;;;;;;;0.60;0.60;;;;;;;;;;4994890;28;20186;-83
2023/10/24 02:55:34;;;;;;;0.50;0.50;;;;;;;;;;5010207;28;20193;-83
2023/10/24 02:58:00;;;;;;;0.60;0.60;;;;;;;;;;5018473;28;20219;-83
2023/10/24 03:00:26;;;;;;;0.60;0.60;;;;;;;;;;5018892;28;20162;-82
2023/10/24 03:02:52;;;;;;;0.60;0.60;;;;;;;;;;5019112;28;20510;-83
2023/10/24 03:05:18;;;;;;;0.60;0.60;;;;;;;;;;5012953;28;20216;-83
2023/10/24 03:07:44;;;;;;;0.60;0.60;;;;;;;;;;4999280;28;20189;-83
2023/10/24 03:10:25;;;;;;;0.60;0.60;;;;;;;;;;4961410;28;20205;-84
2023/10/24 03:12:54;;;;;;;0.60;0.60;;;;;;;;;;4994173;28;20173;-83
2023/10/24 03:15:20;;;;;;;0.50;0.50;;;;;;;;;;4995854;28;20197;-84
2023/10/24 03:17:46;;;;;;;0.63;0.63;;;;;;;;;;4993810;28;20217;-83
2023/10/24 03:20:13;;;;;;;0.57;0.57;;;;;;;;;;4992519;28;20311;-83
2023/10/24 03:22:39;;;;;;;0.60;0.60;;;;;;;;;;4994885;28;20173;-83
2023/10/24 03:25:05;;;;;;;0.60;0.60;;;;;;;;;;5007979;28;20273;-83
2023/10/24 03:27:31;;;;;;;0.50;0.50;;;;;;;;;;5018012;28;20242;-83
2023/10/24 03:29:57;;;;;;;0.57;0.57;;;;;;;;;;5014152;28;20553;-85
2023/10/24 03:32:23;;;;;;;0.53;0.53;;;;;;;;;;4995255;28;20181;-84
2023/10/24 03:34:49;;;;;;;0.60;0.60;;;;;;;;;;4993267;28;20375;-84
2023/10/24 03:37:17;;;;;;;0.50;0.50;;;;;;;;;;4993409;28;20212;-84
2023/10/24 03:39:45;;;;;;;0.50;0.50;;;;;;;;;;4993978;28;20179;-84
2023/10/24 03:42:13;;;;;;;0.60;0.60;;;;;;;;;;4994002;28;20650;-84
2023/10/24 03:44:40;;;;;;;0.50;0.50;;;;;;;;;;5003793;28;20249;-82
2023/10/24 03:47:06;;;;;;;0.70;0.70;;;;;;;;;;5013684;28;20199;-86
2023/10/24 03:49:32;;;;;;;0.60;0.60;;;;;;;;;;5015200;28;20181;-84
2023/10/24 03:51:58;;;;;;;0.50;0.50;;;;;;;;;;5015615;28;20223;-85
2023/10/24 03:54:24;;;;;;;0.50;0.50;;;;;;;;;;5015776;28;20172;-82
2023/10/24 03:56:50;;;;;;;0.60;0.60;;;;;;;;;;5015966;28;20228;-83
2023/10/24 03:59:16;;;;;;;0.60;0.60;;;;;;;;;;5017942;28;20243;-84
2023/10/24 04:01:42;;;;;;;0.60;0.60;;;;;;;;;;5016007;28;20211;-82
2023/10/24 04:04:08;;;;;;;0.53;0.53;;;;;;;;;;5015298;28;20662;-82
2023/10/24 04:06:34;;;;;;;0.50;0.50;;;;;;;;;;5018089;28;20204;-83
2023/10/24 04:09:04;;;;;;;0.60;0.60;;;;;;;;;;5017812;28;20184;-84
2023/10/24 04:11:30;;;;;;;0.57;0.57;;;;;;;;;;5017837;28;20172;-83
2023/10/24 04:13:58;;;;;;;0.60;0.60;;;;;;;;;;5019357;28;20722;-84
2023/10/24 04:16:23;;;;;;;0.60;0.60;;;;;;;;;;5026365;28;20212;-82
2023/10/24 04:18:49;;;;;;;0.50;0.50;;;;;;;;;;5032337;28;20211;-84
2023/10/24 04:21:15;;;;;;;0.50;0.50;;;;;;;;;;5031472;28;20303;-84
2023/10/24 04:23:42;;;;;;;0.60;0.60;;;;;;;;;;5016710;28;20606;-83
2023/10/24 04:26:09;;;;;;;0.60;0.60;;;;;;;;;;5014016;28;20272;-83
2023/10/24 04:28:35;;;;;;;0.50;0.50;;;;;;;;;;5008132;28;20211;-83
2023/10/24 04:31:01;;;;;;;0.50;0.50;;;;;;;;;;5004302;28;20189;-83
2023/10/24 04:33:27;;;;;;;0.60;0.60;;;;;;;;;;5004491;28;20208;-85
2023/10/24 04:35:53;;;;;;;0.57;0.57;;;;;;;;;;5005786;28;20196;-83
2023/10/24 04:38:19;;;;;;;0.50;0.50;;;;;;;;;;5000522;28;20262;-85
2023/10/24 04:40:46;;;;;;;0.70;0.70;;;;;;;;;;4993814;28;20181;-85
2023/10/24 04:43:12;;;;;;;0.60;0.60;;;;;;;;;;4992965;28;20184;-85
2023/10/24 04:45:38;;;;;;;0.60;0.60;;;;;;;;;;4994496;28;20694;-85
2023/10/24 04:48:04;;;;;;;0.50;0.50;;;;;;;;;;4999625;28;20177;-85
2023/10/24 04:50:31;;;;;;;0.70;0.70;;;;;;;;;;4999969;28;20180;-85
2023/10/24 04:52:57;;;;;;;0.60;0.60;;;;;;;;;;5000927;28;20755;-85
2023/10/24 04:55:23;;;;;;;0.60;0.60;;;;;;;;;;5000832;28;20355;-85
2023/10/24 04:57:49;;;;;;;0.60;0.60;;;;;;;;;;5000631;28;20215;-85
2023/10/24 05:00:16;;;;;;;0.60;0.60;;;;;;;;;;5000963;28;20224;-84
2023/10/24 05:02:43;;;;;;;0.50;0.50;;;;;;;;;;5000183;28;20189;-85
2023/10/24 05:05:09;;;;;;;0.60;0.60;;;;;;;;;;4998605;28;20209;-85
2023/10/24 05:07:36;;;;;;;0.50;0.50;;;;;;;;;;5000602;28;20186;-84
2023/10/24 05:10:03;;;;;;;0.60;0.60;;;;;;;;;;5000323;28;20197;-84
2023/10/24 05:12:29;;;;;;;0.57;0.57;;;;;;;;;;5000414;28;20197;-85
2023/10/24 05:14:55;;;;;;;0.60;0.60;;;;;;;;;;4999879;28;20567;-84
2023/10/24 05:17:21;;;;;;;0.50;0.50;;;;;;;;;;5001569;28;20304;-84
2023/10/24 05:19:47;;;;;;;0.50;0.50;;;;;;;;;;4998914;28;20263;-84
2023/10/24 05:22:14;;;;;;;0.50;0.50;;;;;;;;;;5000212;28;20200;-83
2023/10/24 05:24:40;;;;;;;0.63;0.63;;;;;;;;;;4999795;28;20570;-85
2023/10/24 05:27:06;;;;;;;0.70;0.70;;;;;;;;;;4999332;28;20200;-84
2023/10/24 05:29:32;;;;;;;0.50;0.50;;;;;;;;;;4999276;28;20173;-86
2023/10/24 05:31:58;;;;;;;0.40;0.40;;;;;;;;;;5000253;28;20487;-85
2023/10/24 05:34:28;;;;;;;0.60;0.60;;;;;;;;;;5001387;28;20177;-85
2023/10/24 05:36:54;;;;;;;0.50;0.50;;;;;;;;;;5001498;28;20300;-85
2023/10/24 05:39:20;;;;;;;0.50;0.50;;;;;;;;;;5002473;28;20177;-85
2023/10/24 05:41:47;;;;;;;0.60;0.60;;;;;;;;;;5000347;28;20192;-85
2023/10/24 05:44:14;;;;;;;0.70;0.70;;;;;;;;;;5001777;28;20204;-85
2023/10/24 05:46:41;;;;;;;0.60;0.60;;;;;;;;;;5001735;28;20239;-84
2023/10/24 05:49:07;;;;;;;0.50;0.50;;;;;;;;;;5002379;28;20181;-85
2023/10/24 05:51:33;;;;;;;0.50;0.50;;;;;;;;;;5002788;28;20200;-85
2023/10/24 05:53:59;;;;;;;0.60;0.60;;;;;;;;;;5001321;28;20178;-85
2023/10/24 05:56:25;;;;;;;0.50;0.50;;;;;;;;;;5002822;28;20282;-84
2023/10/24 05:58:52;;;;;;;0.60;0.60;;;;;;;;;;5008522;28;20204;-84
2023/10/24 06:01:18;;;;;;;0.60;0.60;;;;;;;;;;5011517;28;20172;-85
2023/10/24 06:03:44;;;;;;;0.47;0.47;;;;;;;;;;5010453;28;20384;-86
2023/10/24 06:06:10;;;;;;;0.57;0.57;;;;;;;;;;5010656;28;20719;-85
2023/10/24 06:08:36;;;;;;;0.57;0.57;;;;;;;;;;5010259;28;20209;-85
2023/10/24 06:11:02;;;;;;;0.60;0.60;;;;;;;;;;5008408;28;20189;-84
2023/10/24 06:13:29;;;;;;;0.57;0.57;;;;;;;;;;5009342;28;20173;-85
2023/10/24 06:15:55;;;;;;;0.50;0.50;;;;;;;;;;5010060;28;20235;-85
2023/10/24 06:18:21;;;;;;;0.60;0.60;;;;;;;;;;5011858;28;20260;-85
2023/10/24 06:20:48;;;;;;;0.60;0.60;;;;;;;;;;5018188;28;20173;-85
2023/10/24 06:23:14;;;;;;;0.63;0.63;;;;;;;;;;5018905;28;20185;-84
2023/10/24 06:25:43;;;;;;;0.50;0.50;;;;;;;;;;5018996;28;20227;-85
2023/10/24 06:28:09;;;;;;;0.60;0.60;;;;;;;;;;5015707;28;20189;-84
2023/10/24 06:30:35;;;;;;;0.60;0.60;;;;;;;;;;5017469;28;20173;-84
2023/10/24 06:33:02;;;;;;;0.60;0.60;;;;;;;;;;5022601;28;20192;-85
2023/10/24 06:35:28;;;;;;;0.63;0.63;;;;;;;;;;5022406;28;20334;-84
2023/10/24 06:37:56;;;;;;;0.50;0.50;;;;;;;;;;5023697;28;20257;-84
2023/10/24 06:40:22;;;;;;;0.50;0.50;;;;;;;;;;5023049;28;20185;-84
2023/10/24 06:42:48;;;;;;;0.50;0.50;;;;;;;;;;5024381;28;20191;-83
2023/10/24 06:45:15;;;;;;;0.60;0.60;;;;;;;;;;5023498;28;20197;-83
2023/10/24 06:47:41;;;;;;;0.50;0.50;;;;;;;;;;5020518;28;20271;-84
2023/10/24 06:50:07;;;;;;;0.50;0.50;;;;;;;;;;5021813;28;20251;-85
2023/10/24 06:52:34;;;;;;;0.60;0.60;;;;;;;;;;5011145;28;20588;-85
2023/10/24 06:55:00;;;;;;;0.50;0.50;;;;;;;;;;5006552;28;20205;-85
2023/10/24 06:57:26;;;;;;;0.60;0.60;;;;;;;;;;5010135;28;20212;-86
2023/10/24 06:59:52;;;;;;;0.60;0.60;;;;;;;;;;5006033;28;20212;-84
2023/10/24 07:02:18;;;;;;;0.60;0.60;;;;;;;;;;5010507;28;20676;-86
2023/10/24 07:04:45;;;;;;;0.60;0.60;;;;;;;;;;5010092;28;20196;-85
2023/10/24 07:07:11;;;;;;;0.60;0.60;;;;;;;;;;5005477;28;20181;-85
2023/10/24 07:09:38;;;;;;;0.70;0.70;;;;;;;;;;5001414;28;20177;-85
2023/10/24 07:12:04;;;;;;;0.60;0.60;;;;;;;;;;5001489;28;20181;-85
2023/10/24 07:14:30;;;;;;;0.70;0.70;;;;;;;;;;5000570;28;20199;-85
2023/10/24 07:16:56;;;;;;;0.57;0.57;;;;;;;;;;5001479;28;20662;-85
2023/10/24 07:19:23;;;;;;;0.40;0.40;;;;;;;;;;5000795;28;20332;-83
2023/10/24 07:21:49;;;;;;;0.60;0.60;;;;;;;;;;5001958;28;20181;-82
2023/10/24 07:24:15;;;;;;;0.70;0.70;;;;;;;;;;4999414;28;20181;-82
2023/10/24 07:26:42;;;;;;;0.57;0.57;;;;;;;;;;5004687;28;20228;-82
2023/10/24 07:29:07;;;;;;;0.50;0.50;;;;;;;;;;4999355;28;20216;-85
2023/10/24 07:31:33;;;;;;;0.70;0.70;;;;;;;;;;5004581;28;20188;-83
2023/10/24 07:34:00;;;;;;;0.53;0.53;;;;;;;;;;5017352;28;20192;-85
2023/10/24 07:36:30;;;;;;;0.50;0.50;;;;;;;;;;5015098;28;20224;-84
2023/10/24 07:38:56;;;;;;;0.40;0.40;;;;;;;;;;5002115;28;20235;-85
2023/10/24 07:41:22;;;;;;;0.50;0.50;;;;;;;;;;5007941;28;20177;-86
2023/10/24 07:43:48;;;;;;;0.50;0.50;;;;;;;;;;4999587;28;20181;-86
2023/10/24 07:46:14;;;;;;;0.50;0.50;;;;;;;;;;4996542;28;20212;-86
2023/10/24 07:48:40;;;;;;;0.60;0.60;;;;;;;;;;4998715;28;20181;-85
2023/10/24 07:51:10;;;;;;;0.50;0.50;;;;;;;;;;5003006;28;20665;-86
2023/10/24 07:53:36;;;;;;;0.50;0.50;;;;;;;;;;5000158;28;20173;-85
2023/10/24 07:56:05;;;;;;;0.43;0.43;;;;;;;;;;4999359;28;20263;-85
2023/10/24 07:58:31;;;;;;;0.50;0.50;;;;;;;;;;4998249;28;20213;-86
2023/10/24 08:00:57;;;;;;;0.60;0.60;;;;;;;;;;5000847;28;20292;-86
2023/10/24 08:03:23;;;;;;;0.60;0.60;;;;;;;;;;5000328;28;20765;-86
2023/10/24 08:05:49;;;;;;;0.60;0.60;;;;;;;;;;5000098;28;20201;-86
2023/10/24 08:08:15;;;;;;;0.70;0.70;;;;;;;;;;5000465;28;20275;-85
2023/10/24 08:10:41;;;;;;;0.60;0.60;;;;;;;;;;5000184;28;20226;-86
2023/10/24 08:13:07;;;;;;;0.50;0.50;;;;;;;;;;4999981;28;20189;-85
2023/10/24 08:15:34;;;;;;;0.50;0.50;;;;;;;;;;4999132;28;20292;-85
2023/10/24 08:18:00;;;;;;;0.60;0.60;;;;;;;;;;5000369;28;20214;-85
2023/10/24 08:20:26;;;;;;;0.53;0.53;;;;;;;;;;5000126;28;20200;-84
2023/10/24 08:22:53;;;;;;;0.60;0.60;;;;;;;;;;5004572;28;20184;-85
2023/10/24 08:25:19;;;;;;;0.50;0.50;;;;;;;;;;5003714;28;20200;-85
2023/10/24 08:27:45;;;;;;;0.60;0.60;;;;;;;;;;5003971;28;20200;-85
2023/10/24 08:30:11;;;;;;;0.60;0.60;;;;;;;;;;5005423;28;20193;-86
2023/10/24 08:32:37;;;;;;;0.53;0.53;;;;;;;;;;5013846;28;20249;-86
2023/10/24 08:35:03;;;;;;;0.50;0.50;;;;;;;;;;5019277;28;20216;-86
2023/10/24 08:37:30;;;;;;;0.50;0.50;;;;;;;;;;5021327;28;20228;-85
2023/10/24 08:39:56;;;;;;;0.50;0.50;;;;;;;;;;5021993;28;20231;-84
2023/10/24 08:42:22;;;;;;;0.40;0.40;;;;;;;;;;5032979;28;20253;-86
2023/10/24 08:44:51;;;;;;;0.50;0.50;;;;;;;;;;5022458;28;20176;-86
2023/10/24 08:47:17;;;;;;;0.60;0.60;;;;;;;;;;5023826;28;20184;-85
2023/10/24 08:49:43;;;;;;;0.60;0.60;;;;;;;;;;5022128;28;20181;-85
2023/10/24 08:52:09;;;;;;;0.60;0.60;;;;;;;;;;5022753;28;20696;-85
2023/10/24 08:54:35;;;;;;;0.50;0.50;;;;;;;;;;5021479;28;20267;-85
2023/10/24 08:57:02;;;;;;;0.50;0.50;;;;;;;;;;5023212;28;20244;-86
2023/10/24 08:59:29;;;;;;;0.60;0.60;;;;;;;;;;5020264;28;20575;-86
2023/10/24 09:01:55;;;;;;;0.70;0.70;;;;;;;;;;5020178;28;20180;-85
2023/10/24 09:04:22;;;;;;;0.67;0.67;;;;;;;;;;5018507;28;20179;-86
2023/10/24 09:06:48;;;;;;;0.50;0.50;;;;;;;;;;5017820;28;20192;-85
2023/10/24 09:09:15;;;;;;;0.50;0.50;;;;;;;;;;5016432;28;20558;-86
2023/10/24 09:11:58;;;;;;;0.40;0.40;;;;;;;;;;5016187;28;20204;-85
2023/10/24 09:14:25;;;;;;;0.50;0.50;;;;;;;;;;5016915;28;20199;-85
2023/10/24 09:16:55;;;;;;;0.60;0.60;;;;;;;;;;5016520;28;20196;-86
2023/10/24 09:19:21;;;;;;;0.60;0.60;;;;;;;;;;5016882;28;20184;-87
2023/10/24 09:21:48;;;;;;;0.50;0.50;;;;;;;;;;5015157;28;20208;-87
2023/10/24 09:24:15;;;;;;;0.60;0.60;;;;;;;;;;5015230;28;20183;-87
2023/10/24 09:26:41;;;;;;;0.50;0.50;;;;;;;;;;5017016;28;20227;-84
2023/10/24 09:29:10;;;;;;;0.50;0.50;;;;;;;;;;5015915;28;20175;-84
2023/10/24 09:31:36;;;;;;;0.60;0.60;;;;;;;;;;5017055;28;20247;-84
2023/10/24 09:34:02;;;;;;;0.50;0.50;;;;;;;;;;5027313;28;20690;-85
2023/10/24 09:36:28;;;;;;;0.50;0.50;;;;;;;;;;5017619;28;20196;-84
2023/10/24 09:38:54;;;;;;;0.60;0.60;;;;;;;;;;5017067;28;20219;-85
2023/10/24 09:41:21;;;;;;;0.47;0.47;;;;;;;;;;5020782;28;20176;-85
2023/10/24 09:43:50;;;;;;;0.50;0.50;;;;;;;;;;5027656;28;20165;-85
2023/10/24 09:46:20;;;;;;;0.50;0.50;;;;;;;;;;5028902;28;20197;-85
2023/10/24 09:48:46;;;;;;;0.60;0.60;;;;;;;;;;5024936;28;20243;-84
2023/10/24 09:51:13;;;;;;;0.40;0.40;;;;;;;;;;5032335;28;20187;-85
2023/10/24 09:53:40;;;;;;;0.50;0.50;;;;;;;;;;5031286;28;20263;-85
2023/10/24 09:56:07;;;;;;;0.50;0.50;;;;;;;;;;5028510;28;20290;-85
2023/10/24 09:58:38;;;;;;;0.50;0.50;;;;;;;;;;5027299;28;20212;-85
2023/10/24 10:01:04;;;;;;;0.40;0.40;;;;;;;;;;5021513;28;20168;-85
2023/10/24 10:03:31;;;;;;;0.40;0.40;;;;;;;;;;5027005;28;20608;-85
2023/10/24 10:05:58;;;;;;;0.50;0.50;;;;;;;;;;5030355;28;20327;-85
2023/10/24 10:08:26;;;;;;;0.40;0.40;;;;;;;;;;5023311;28;20204;-85
2023/10/24 10:10:53;;;;;;;0.53;0.53;;;;;;;;;;5027054;28;20250;-85
2023/10/24 10:13:22;;;;;;;0.50;0.50;;;;;;;;;;5035220;28;20175;-83
2023/10/24 10:15:48;;;;;;;0.50;0.50;;;;;;;;;;5019421;28;20250;-83
2023/10/24 10:18:23;;;;;;;0.40;0.40;;;;;;;;;;5018202;28;20205;-84
2023/10/24 10:20:49;;;;;;;0.40;0.40;;;;;;;;;;5019256;28;20177;-84
2023/10/24 10:23:28;;;;;;;0.40;0.40;;;;;;;;;;5010804;28;20249;-86
2023/10/24 10:26:06;;;;;;;0.50;0.50;;;;;;;;;;4997834;28;20200;-86
2023/10/24 10:28:48;;;;;;;0.50;0.50;;;;;;;;;;4995394;28;20567;-87
2023/10/24 10:31:15;;;;;;;0.50;0.50;;;;;;;;;;4993635;28;20197;-87
2023/10/24 10:33:42;;;;;;;0.60;0.60;;;;;;;;;;4994632;28;20185;-86
2023/10/24 10:36:09;;;;;;;0.60;0.60;;;;;;;;;;4994265;28;20193;-86
2023/10/24 10:38:36;;;;;;;0.43;0.43;;;;;;;;;;5001271;28;20221;-85
2023/10/24 10:41:33;;;;;;;0.50;0.50;;;;;;;;;;5014456;28;20177;-84
2023/10/24 10:44:01;;;;;;;0.50;0.50;;;;;;;;;;5014162;28;20173;-85
2023/10/24 10:46:29;;;;;;;0.70;0.70;;;;;;;;;;5015802;28;21003;-85
2023/10/24 10:49:02;;;;;;;0.50;0.50;;;;;;;;;;5021284;28;20679;-86
2023/10/24 10:51:32;;;;;;;0.60;0.60;;;;;;;;;;5006742;28;20669;-86
2023/10/24 10:54:17;;;;;;;0.40;0.40;;;;;;;;;;5016505;28;20175;-84
2023/10/24 10:56:43;;;;;;;0.60;0.60;;;;;;;;;;5016700;28;20192;-86
2023/10/24 10:59:18;;;;;;;0.50;0.50;;;;;;;;;;5013859;28;20775;-86
2023/10/24 11:02:02;;;;;;;0.50;0.50;;;;;;;;;;5015507;28;20172;-85
2023/10/24 11:04:28;;;;;;;0.60;0.60;;;;;;;;;;5015383;28;20194;-87
2023/10/24 11:06:55;;;;;;;0.40;0.40;;;;;;;;;;5018227;28;20184;-86
2023/10/24 11:09:22;;;;;;;0.50;0.50;;;;;;;;;;4999395;28;20177;-86
2023/10/24 11:12:08;;;;;;;0.57;0.57;;;;;;;;;;5000430;28;20188;-86
2023/10/24 11:14:35;;;;;;;0.50;0.50;;;;;;;;;;5002044;28;20178;-88
2023/10/24 11:17:01;;;;;;;0.50;0.50;;;;;;;;;;5003913;28;20180;-85
2023/10/24 11:19:28;;;;;;;0.40;0.40;;;;;;;;;;5014566;28;20176;-88
2023/10/24 11:21:55;;;;;;;0.50;0.50;;;;;;;;;;5012841;28;20176;-91
2023/10/24 11:24:22;;;;;;;0.60;0.60;;;;;;;;;;5014333;28;20605;-89
2023/10/24 11:26:59;;;;;;;0.50;0.50;;;;;;;;;;5034568;28;20208;-88
2023/10/24 11:29:25;;;;;;;0.50;0.50;;;;;;;;;;5013650;28;20335;-89
2023/10/24 11:31:51;;;;;;;0.50;0.50;;;;;;;;;;5014373;28;20184;-87
2023/10/24 11:34:18;;;;;;;0.50;0.50;;;;;;;;;;5032967;28;20188;-92
2023/10/24 11:36:45;;;;;;;0.50;0.50;;;;;;;;;;5036935;28;20180;-85
2023/10/24 11:39:14;;;;;;;0.60;0.60;;;;;;;;;;5029174;28;20362;-87
2023/10/24 11:41:41;;;;;;;0.50;0.50;;;;;;;;;;5014076;28;20673;-89
2023/10/24 11:44:12;;;;;;;0.60;0.60;;;;;;;;;;5017803;28;20658;-92
2023/10/24 11:46:47;;;;;;;0.43;0.43;;;;;;;;;;5020035;28;20210;-86
2023/10/24 11:49:13;;;;;;;0.50;0.50;;;;;;;;;;5015739;28;20183;-86
2023/10/24 11:51:39;;;;;;;0.50;0.50;;;;;;;;;;5019810;28;20180;-83
2023/10/24 11:54:06;;;;;;;0.60;0.60;;;;;;;;;;5026884;28;20180;-85
2023/10/24 11:56:32;;;;;;;0.50;0.50;;;;;;;;;;5010093;28;20271;-86
2023/10/24 11:58:58;;;;;;;0.50;0.50;;;;;;;;;;5005955;28;20219;-87
2023/10/24 12:01:24;;;;;;;0.40;0.40;;;;;;;;;;5015282;28;20547;-84
2023/10/24 12:03:56;;;;;;;0.50;0.50;;;;;;;;;;5015818;28;20180;-85
2023/10/24 12:06:22;;;;;;;0.60;0.60;;;;;;;;;;5016129;28;20251;-87
2023/10/24 12:08:48;;;;;;;0.50;0.50;;;;;;;;;;5016530;28;20207;-86
2023/10/24 12:11:14;;;;;;;0.50;0.50;;;;;;;;;;5016499;28;20522;-86
2023/10/24 12:13:40;;;;;;;0.50;0.50;;;;;;;;;;5016640;28;20193;-86
2023/10/24 12:16:07;;;;;;;0.50;0.50;;;;;;;;;;5015583;28;20204;-85
2023/10/24 12:18:33;;;;;;;0.40;0.40;;;;;;;;;;4996884;28;20224;-85
2023/10/24 12:20:59;;;;;;;0.43;0.43;;;;;;;;;;4998534;28;20191;-85
2023/10/24 12:23:25;;;;;;;0.50;0.50;;;;;;;;;;5004199;28;20189;-84
2023/10/24 12:25:52;;;;;;;0.70;0.70;;;;;;;;;;4994028;28;20193;-85
2023/10/24 12:28:18;;;;;;;0.50;0.50;;;;;;;;;;4995984;28;20187;-85
2023/10/24 12:30:44;;;;;;;0.40;0.40;;;;;;;;;;4995296;28;20183;-85
2023/10/24 12:33:11;;;;;;;0.60;0.60;;;;;;;;;;4996589;28;20181;-88
2023/10/24 12:35:37;;;;;;;0.40;0.40;;;;;;;;;;4994838;28;20209;-87
2023/10/24 12:38:03;;;;;;;0.60;0.60;;;;;;;;;;4995279;28;20223;-88
2023/10/24 12:40:29;;;;;;;0.50;0.50;;;;;;;;;;5002998;28;20200;-87
2023/10/24 12:42:55;;;;;;;0.60;0.60;;;;;;;;;;4999220;28;20200;-87
2023/10/24 12:45:21;;;;;;;0.50;0.50;;;;;;;;;;5000012;28;20189;-87
2023/10/24 12:47:48;;;;;;;0.40;0.40;;;;;;;;;;5013531;28;20181;-86
2023/10/24 12:50:15;;;;;;;0.40;0.40;;;;;;;;;;5014792;28;20228;-86
2023/10/24 12:52:43;;;;;;;0.50;0.50;;;;;;;;;;4998441;28;20288;-87
2023/10/24 12:55:09;;;;;;;0.47;0.47;;;;;;;;;;4997143;28;20555;-88
2023/10/24 12:57:34;;;;;;;0.50;0.50;;;;;;;;;;5004908;28;20747;-86
2023/10/24 13:00:00;;;;;;;0.40;0.40;;;;;;;;;;5005218;28;20219;-86
2023/10/24 13:02:26;;;;;;;0.50;0.50;;;;;;;;;;5009959;28;20635;-87
2023/10/24 13:04:52;;;;;;;0.50;0.50;;;;;;;;;;5018909;28;20543;-86
2023/10/24 13:07:19;;;;;;;0.50;0.50;;;;;;;;;;5018228;28;20271;-85
2023/10/24 13:09:46;;;;;;;0.40;0.40;;;;;;;;;;5020632;28;20255;-85
2023/10/24 13:12:12;;;;;;;0.40;0.40;;;;;;;;;;5019034;28;20232;-88
2023/10/24 13:14:39;;;;;;;0.50;0.50;;;;;;;;;;5020799;28;20192;-86
2023/10/24 13:17:05;;;;;;;0.70;0.70;;;;;;;;;;5017076;28;20185;-85
2023/10/24 13:19:32;;;;;;;0.50;0.50;;;;;;;;;;5021084;28;20185;-86
2023/10/24 13:21:58;;;;;;;0.50;0.50;;;;;;;;;;5018679;28;20245;-86
2023/10/24 13:24:24;;;;;;;0.47;0.47;;;;;;;;;;5017740;28;20203;-87
2023/10/24 13:26:50;;;;;;;0.60;0.60;;;;;;;;;;5017846;28;20201;-86
2023/10/24 13:29:17;;;;;;;0.57;0.57;;;;;;;;;;5016615;28;20193;-87
2023/10/24 13:31:43;;;;;;;0.67;0.67;;;;;;;;;;5017844;28;20220;-87
2023/10/24 13:34:09;;;;;;;0.40;0.40;;;;;;;;;;5016198;28;20189;-87
2023/10/24 13:36:36;;;;;;;0.47;0.47;;;;;;;;;;5018308;28;20335;-86
2023/10/24 13:39:03;;;;;;;0.47;0.47;;;;;;;;;;5016476;28;20231;-88
2023/10/24 13:41:29;;;;;;;0.50;0.50;;;;;;;;;;5021006;28;20192;-85
2023/10/24 13:43:57;;;;;;;0.50;0.50;;;;;;;;;;5023628;28;20188;-87
2023/10/24 13:46:23;;;;;;;0.50;0.50;;;;;;;;;;5024693;28;20227;-86
2023/10/24 13:48:49;;;;;;;0.60;0.60;;;;;;;;;;5017932;28;20187;-87
2023/10/24 13:51:15;;;;;;;0.50;0.50;;;;;;;;;;5016897;28;20260;-86
2023/10/24 13:53:41;;;;;;;0.57;0.57;;;;;;;;;;5003075;28;20270;-84
2023/10/24 13:56:07;;;;;;;0.50;0.50;;;;;;;;;;5018057;28;20268;-86
2023/10/24 13:58:33;;;;;;;0.50;0.50;;;;;;;;;;5017347;28;20583;-86
2023/10/24 14:00:59;;;;;;;0.50;0.50;;;;;;;;;;5023993;28;20196;-85
2023/10/24 14:03:25;;;;;;;0.60;0.60;;;;;;;;;;5030354;28;20180;-84
2023/10/24 14:05:52;;;;;;;0.50;0.50;;;;;;;;;;5029310;28;20228;-83
2023/10/24 14:08:18;;;;;;;0.50;0.50;;;;;;;;;;5037395;28;20204;-83
2023/10/24 14:10:44;;;;;;;0.60;0.60;;;;;;;;;;5037111;28;20195;-85
2023/10/24 14:13:12;;;;;;;0.50;0.50;;;;;;;;;;5027161;28;20178;-85
2023/10/24 14:15:38;;;;;;;0.50;0.50;;;;;;;;;;5023731;28;20197;-89
2023/10/24 14:18:04;;;;;;;0.50;0.50;;;;;;;;;;5019669;28;20602;-83
2023/10/24 14:20:33;;;;;;;0.50;0.50;;;;;;;;;;5020536;28;20557;-85
2023/10/24 14:22:59;;;;;;;0.50;0.50;;;;;;;;;;5017399;28;20180;-85
2023/10/24 14:25:25;;;;;;;0.60;0.60;;;;;;;;;;5015814;28;20189;-85
2023/10/24 14:27:53;;;;;;;0.50;0.50;;;;;;;;;;5017894;28;20553;-86
2023/10/24 14:30:19;;;;;;;0.60;0.60;;;;;;;;;;5020666;28;20239;-88
2023/10/24 14:32:45;;;;;;;0.50;0.50;;;;;;;;;;5016673;28;20184;-87
2023/10/24 14:35:14;;;;;;;0.50;0.50;;;;;;;;;;5017188;28;20201;-88
2023/10/24 14:37:41;;;;;;;0.60;0.60;;;;;;;;;;5021434;28;20192;-84
2023/10/24 14:40:07;;;;;;;0.43;0.43;;;;;;;;;;5011755;28;20196;-84
2023/10/24 14:42:33;;;;;;;0.50;0.50;;;;;;;;;;5007295;28;20624;-86